Terminal Aerodrome Forecast
Issued by NWS Louisville, KY

Home | Current Version | Previous Version | Text Only | Print | Product List | Glossary On
Versions: 1 2 3 4 5 6 7 8 9 10 11 12 13 14 15 16 17 18 19 20
000
FTUS43 KLMK 201123
TAFLEX
TAF
KLEX 201123Z 2012/2112 18009KT P6SM BKN150
     FM201400 19007KT P6SM BKN040
     FM210000 19006KT P6SM VCSH BKN020 PROB30 2101/2105 4SM -TSRA
      BKN012CB
     FM210600 22005KT 4SM BR BKN015
     FM210900 31005KT 4SM BR OVC007=

USA.gov is the U.S. government's official web portal to all federal, state and local government web resources and services.